메인 페이지
METAR-TAF:

METAR-TAF

공항 :

리우데자네이루 갈레앙 국제공항, 리우데자네이루, 브라질

위도: 22-49S, 경도: 043-15W, 고도: 6m

현재 날씨관측

예보는 23분 전, 21:00시(UTC)에 발표되었습니다.
남동6kt
온도 21°C
습도 64%
기압 1023 hPa
시정 10km 이상
고도 4500ft 상공 구름 보통

METAR: SBGL 202100Z 13006KT 9999 SCT045 21/14 Q1023

시각: 18:23 (21:23 UTC)

예보

예보는 6 시간 8분 전, 15:15시(UTC)에 발표되었습니다.
예보 대상 시간: 20일 18시부터 21일 24시까지 (UTC)
남남동10kt
시정 10km 이상
고도 2000ft 상공 구름 조금
전환 중
20일 23시부터 21일 01시까지 (UTC)
5kt
전환 중
21일 02시부터 21일 04시까지 (UTC)
서북서5kt
시정: 7000m
고도 1500ft 상공 구름 보통
확률 30%
21일 07시부터 21일 10시까지 (UTC)
시정: 3000m
고도 1000ft 상공 구름 많음
박무
전환 중
21일 13시부터 21일 15시까지 (UTC)
5kt
시정 10km 이상
고도 2000ft 상공 구름 조금
전환 중
21일 16시부터 21일 18시까지 (UTC)
남동10kt
전환 중
21일 22시부터 21일 24시까지 (UTC)
5kt

TAF: SBGL 201515Z 2018/2124 15010KT 9999 FEW020 TX25/2018Z TN16/2108Z BECMG 2023/2101 36005KT BECMG 2102/2104 29005KT 7000 SCT015 PROB30 2107/2110 3000 BR BKN010 BECMG 2113/2115 36005KT 9999 FEW020 BECMG 2116/2118 14010KT BECMG 2122/2124 09005KT RMK PHD

4,000개 이상의 공항 관측 자료 및 예보 (METAR 및 TAF 보고).

지도상에서 검색 가능한 기상관측소가 노란 점과 빨간 점으로 표시되어 있습니다.

기상관측소 명을 보려면 표시 위로 마우스를 이동하세요.

날씨 관측과 예보를 보려면 클릭하세요.

지도 변경 : 확대하려면 엑스 표시가 있는 녹색 버튼, 축소하려면 빼기 표시가 있는 녹색 버튼, 다음 페이지의 지도를 보려면 녹색 화살표를 클릭하세요.


METAR-TAF: